createdAt,value
2017-05-27T00:02:22.639Z,99.90
2017-05-27T00:04:58.012Z,99.90
2017-05-27T00:07:33.227Z,99.90
2017-05-27T00:10:08.486Z,99.90
2017-05-27T00:12:43.742Z,99.90
2017-05-27T00:15:19.023Z,99.90
2017-05-27T00:17:54.347Z,99.90
2017-05-27T00:20:29.675Z,99.90
2017-05-27T00:23:04.946Z,99.90
2017-05-27T00:25:40.287Z,99.90
2017-05-27T00:28:15.458Z,99.90
2017-05-27T00:30:51.533Z,99.90
2017-05-27T00:33:28.230Z,99.90
2017-05-27T00:36:03.901Z,99.90
2017-05-27T00:38:39.110Z,99.90
2017-05-27T00:41:14.378Z,99.90
2017-05-27T00:43:49.625Z,99.90
2017-05-27T00:46:25.019Z,99.90
2017-05-27T00:49:00.390Z,99.90
2017-05-27T00:51:35.714Z,99.90
2017-05-27T00:54:11.158Z,99.90
2017-05-27T00:56:46.510Z,99.90
2017-05-27T00:59:21.776Z,99.90
2017-05-27T01:01:57.312Z,99.90
2017-05-27T01:04:32.505Z,99.90
2017-05-27T01:07:07.878Z,99.90
2017-05-27T01:09:43.159Z,99.90
2017-05-27T01:12:18.367Z,99.90
2017-05-27T01:14:53.569Z,99.90
2017-05-27T01:17:28.905Z,99.90
2017-05-27T01:20:04.105Z,99.90
2017-05-27T01:22:39.530Z,99.90
2017-05-27T01:25:14.842Z,99.90
2017-05-27T01:27:50.069Z,99.90
2017-05-27T01:30:25.440Z,99.90
2017-05-27T01:33:00.989Z,99.90
2017-05-27T01:35:36.183Z,99.90
2017-05-27T01:38:11.454Z,99.90
2017-05-27T01:40:46.614Z,99.90
2017-05-27T01:43:21.926Z,99.90
2017-05-27T01:45:57.183Z,99.90
2017-05-27T01:48:32.557Z,99.90
2017-05-27T01:51:07.724Z,99.90
2017-05-27T01:53:43.073Z,99.90
2017-05-27T01:56:18.419Z,99.90
2017-05-27T01:58:53.749Z,99.90
2017-05-27T02:01:28.974Z,99.90
2017-05-27T02:04:04.283Z,99.90
2017-05-27T02:06:39.597Z,99.90
2017-05-27T02:09:15.155Z,99.90
2017-05-27T02:11:50.422Z,99.90
2017-05-27T02:14:25.726Z,99.90
2017-05-27T02:17:00.982Z,99.90
2017-05-27T02:19:36.382Z,99.90
2017-05-27T02:22:11.687Z,99.90
2017-05-27T02:24:46.995Z,99.90
2017-05-27T02:27:22.231Z,99.90
2017-05-27T02:29:57.538Z,99.90
2017-05-27T02:32:32.702Z,99.90
2017-05-27T02:35:08.093Z,99.90
2017-05-27T02:37:43.280Z,99.90
2017-05-27T02:40:18.573Z,99.90
2017-05-27T02:42:53.885Z,99.90
2017-05-27T02:45:29.260Z,99.90
2017-05-27T02:48:04.532Z,99.90
2017-05-27T02:50:39.838Z,99.90
2017-05-27T02:53:15.172Z,99.90
2017-05-27T02:55:50.666Z,99.90
2017-05-27T02:58:26.007Z,99.90
2017-05-27T03:01:01.327Z,99.90
2017-05-27T03:03:36.581Z,99.90
2017-05-27T03:06:12.124Z,99.90
2017-05-27T03:08:47.368Z,99.90
2017-05-27T03:11:22.668Z,99.90
2017-05-27T03:13:57.878Z,99.90
2017-05-27T03:16:33.172Z,99.90
2017-05-27T03:19:08.513Z,99.90
2017-05-27T03:21:43.853Z,99.90
2017-05-27T03:24:18.945Z,99.90
2017-05-27T03:26:54.202Z,99.90
2017-05-27T03:29:29.447Z,99.90
2017-05-27T03:32:04.827Z,99.90
2017-05-27T03:34:40.042Z,99.90
2017-05-27T03:37:15.398Z,99.90
2017-05-27T03:39:50.670Z,99.90
2017-05-27T03:42:26.077Z,99.90
2017-05-27T03:45:01.354Z,99.90
2017-05-27T03:47:36.682Z,99.90
2017-05-27T03:50:11.973Z,99.90
2017-05-27T03:52:47.318Z,99.90
2017-05-27T03:55:22.677Z,99.90
2017-05-27T03:57:58.034Z,99.90
2017-05-27T04:00:33.357Z,99.90
2017-05-27T04:03:08.692Z,99.90
2017-05-27T04:05:44.004Z,99.90
2017-05-27T04:08:19.321Z,99.90
2017-05-27T04:10:54.671Z,99.90
2017-05-27T04:13:29.978Z,99.90
2017-05-27T04:16:05.170Z,99.90
2017-05-27T04:18:40.520Z,99.90
2017-05-27T04:21:15.746Z,99.90
2017-05-27T04:23:51.109Z,99.90
2017-05-27T04:26:26.455Z,99.90
2017-05-27T04:29:01.915Z,99.90
2017-05-27T04:31:37.253Z,99.90
2017-05-27T04:34:12.539Z,99.90
2017-05-27T04:36:47.767Z,99.90
2017-05-27T04:39:23.391Z,99.90
2017-05-27T04:41:58.722Z,99.90
2017-05-27T04:44:34.067Z,99.90
2017-05-27T04:47:09.427Z,99.90
2017-05-27T04:49:44.674Z,99.90
2017-05-27T04:52:20.019Z,99.90
2017-05-27T04:54:55.544Z,99.90
2017-05-27T04:57:30.818Z,99.90
2017-05-27T05:00:07.387Z,99.90
2017-05-27T05:02:42.824Z,99.90
2017-05-27T05:05:18.211Z,99.90
2017-05-27T05:07:53.519Z,99.90
2017-05-27T05:10:28.918Z,99.90
2017-05-27T05:13:04.196Z,99.90
2017-05-27T05:15:39.535Z,99.90
2017-05-27T05:18:14.770Z,99.90
2017-05-27T05:20:50.109Z,99.90
2017-05-27T05:23:25.291Z,99.90
2017-05-27T05:26:00.766Z,99.90
2017-05-27T05:28:36.581Z,99.90
2017-05-27T05:31:11.926Z,99.90
2017-05-27T05:33:47.126Z,99.90
2017-05-27T05:36:22.449Z,99.90
2017-05-27T05:38:57.628Z,99.90
2017-05-27T05:41:32.950Z,99.90
2017-05-27T05:44:08.299Z,99.90
2017-05-27T05:46:43.548Z,99.90
2017-05-27T05:49:18.824Z,99.90
2017-05-27T05:51:54.210Z,99.90
2017-05-27T05:54:29.511Z,99.90
2017-05-27T05:57:04.839Z,99.90
2017-05-27T05:59:40.089Z,99.90
2017-05-27T06:02:15.590Z,99.90
2017-05-27T06:04:50.916Z,99.90
2017-05-27T06:07:26.287Z,99.90
2017-05-27T06:10:01.796Z,99.90
2017-05-27T06:12:37.071Z,99.90
2017-05-27T06:15:12.373Z,99.90
2017-05-27T06:17:47.599Z,99.90
2017-05-27T06:20:22.795Z,99.90
2017-05-27T06:22:58.135Z,99.90
2017-05-27T06:25:33.481Z,99.90
2017-05-27T06:28:09.027Z,99.90
2017-05-27T06:30:44.741Z,99.90
2017-05-27T06:33:20.072Z,99.90
2017-05-27T06:35:55.312Z,99.90
2017-05-27T06:38:30.750Z,99.90
2017-05-27T06:41:07.272Z,99.90
2017-05-27T06:43:42.948Z,99.90
2017-05-27T06:46:19.815Z,99.90
2017-05-27T06:48:56.505Z,99.90
2017-05-27T06:51:31.739Z,99.90
2017-05-27T06:54:07.070Z,99.90
2017-05-27T06:56:55.102Z,99.90
2017-05-27T06:59:36.738Z,99.90
2017-05-27T07:02:20.858Z,99.90
2017-05-27T07:04:57.789Z,99.90
2017-05-27T07:07:32.973Z,99.90
2017-05-27T07:10:08.490Z,99.90
2017-05-27T07:12:43.711Z,99.90
2017-05-27T07:15:19.044Z,99.90
2017-05-27T07:17:54.442Z,99.90
2017-05-27T07:20:29.891Z,99.90
2017-05-27T07:23:05.129Z,99.90
2017-05-27T07:25:40.403Z,99.90
2017-05-27T07:28:15.710Z,99.90
2017-05-27T07:30:51.150Z,99.90
2017-05-27T07:33:26.393Z,99.90
2017-05-27T07:36:01.643Z,99.90
2017-05-27T07:38:37.082Z,99.90
2017-05-27T07:41:12.506Z,99.90
2017-05-27T07:43:47.867Z,99.90
2017-05-27T07:46:23.104Z,99.90
2017-05-27T07:48:58.434Z,99.90
2017-05-27T07:51:33.722Z,99.90
2017-05-27T07:54:09.008Z,99.90
2017-05-27T07:56:44.305Z,99.90
2017-05-27T07:59:19.663Z,99.90
2017-05-27T08:01:59.778Z,99.90
2017-05-27T08:04:41.409Z,99.90
2017-05-27T08:07:23.258Z,99.90
2017-05-27T08:10:06.332Z,99.90
2017-05-27T08:12:49.074Z,99.90
2017-05-27T08:15:28.226Z,99.90
2017-05-27T08:18:10.699Z,99.90
2017-05-27T08:20:52.893Z,99.90
2017-05-27T08:23:36.169Z,99.90
2017-05-27T08:26:19.704Z,99.90
2017-05-27T08:29:01.620Z,99.90
2017-05-27T08:31:44.155Z,99.90
2017-05-27T08:34:31.481Z,99.90
2017-05-27T08:37:12.666Z,99.90
2017-05-27T08:39:55.623Z,99.90
2017-05-27T08:42:38.436Z,99.90
2017-05-27T08:45:20.901Z,99.90
2017-05-27T08:48:02.455Z,99.90
2017-05-27T08:50:44.638Z,99.90
2017-05-27T08:53:26.158Z,99.90
2017-05-27T08:56:07.909Z,99.90
2017-05-27T08:58:49.793Z,99.90
2017-05-27T09:01:32.679Z,99.90
2017-05-27T09:04:15.587Z,99.90
2017-05-27T09:06:57.256Z,99.90
2017-05-27T09:09:38.022Z,99.90
2017-05-27T09:12:19.918Z,99.90
2017-05-27T09:15:00.602Z,99.90
2017-05-27T09:17:41.856Z,99.90
2017-05-27T09:20:22.655Z,99.90
2017-05-27T09:23:04.350Z,99.90
2017-05-27T09:25:44.898Z,99.90
2017-05-27T09:28:25.965Z,99.90
2017-05-27T09:31:06.757Z,99.90
2017-05-27T09:33:48.650Z,99.90
2017-05-27T09:36:31.680Z,99.90
2017-05-27T09:39:12.861Z,99.90
2017-05-27T09:41:54.189Z,99.90
2017-05-27T09:44:35.875Z,99.90
2017-05-27T09:47:16.989Z,99.90
2017-05-27T09:50:01.555Z,99.90
2017-05-27T09:52:43.045Z,99.90
2017-05-27T09:55:24.971Z,99.90
2017-05-27T09:58:06.989Z,99.90
2017-05-27T10:00:48.061Z,99.90
2017-05-27T10:03:28.930Z,99.90
2017-05-27T10:06:04.720Z,99.90
2017-05-27T10:08:39.996Z,99.90
2017-05-27T10:11:19.613Z,98.70
2017-05-27T10:14:00.015Z,98.00
2017-05-27T10:16:40.885Z,98.10
2017-05-27T10:19:21.333Z,98.80
2017-05-27T10:22:02.196Z,99.30
2017-05-27T10:24:42.943Z,97.70
2017-05-27T10:27:24.799Z,98.00
2017-05-27T10:30:05.089Z,99.50
2017-05-27T10:32:44.607Z,98.10
2017-05-27T10:35:23.590Z,97.40
2017-05-27T10:38:03.607Z,97.10
2017-05-27T10:40:43.080Z,97.20
2017-05-27T10:43:22.037Z,96.00
2017-05-27T10:46:00.869Z,95.10
2017-05-27T10:48:40.692Z,94.40
2017-05-27T10:51:20.126Z,95.10
2017-05-27T10:53:59.740Z,95.60
2017-05-27T10:56:39.373Z,96.90
2017-05-27T10:59:18.458Z,95.10
2017-05-27T11:01:57.272Z,95.50
2017-05-27T11:04:36.418Z,95.30
2017-05-27T11:07:15.678Z,95.80
2017-05-27T11:09:56.623Z,93.60
2017-05-27T11:12:36.470Z,93.80
2017-05-27T11:15:15.740Z,93.30
2017-05-27T11:17:55.035Z,95.00
2017-05-27T11:20:34.742Z,94.60
2017-05-27T11:23:14.541Z,94.30
2017-05-27T11:25:56.299Z,94.40
2017-05-27T11:28:33.852Z,93.90
2017-05-27T11:31:10.824Z,93.20
2017-05-27T11:33:47.213Z,93.10
2017-05-27T11:36:23.567Z,93.20
2017-05-27T11:39:00.211Z,94.10
2017-05-27T11:41:37.057Z,93.20
2017-05-27T11:44:16.805Z,94.90
2017-05-27T11:46:58.333Z,93.90
2017-05-27T11:49:39.397Z,93.80
2017-05-27T11:52:20.848Z,93.90
2017-05-27T11:55:01.939Z,94.70
2017-05-27T11:57:43.638Z,94.70
2017-05-27T12:00:24.815Z,95.40
2017-05-27T12:03:06.416Z,94.30
2017-05-27T12:05:47.833Z,93.60
2017-05-27T12:08:29.525Z,94.10
2017-05-27T12:11:11.745Z,94.60
2017-05-27T12:13:53.095Z,95.60
2017-05-27T12:16:34.855Z,95.70
2017-05-27T12:19:15.519Z,94.50
2017-05-27T12:22:00.490Z,94.70
2017-05-27T12:24:45.169Z,95.40
2017-05-27T12:27:28.815Z,93.70
2017-05-27T12:30:07.571Z,93.30
2017-05-27T12:32:49.052Z,93.60
2017-05-27T12:35:30.316Z,93.50
2017-05-27T12:38:14.202Z,94.30
2017-05-27T12:40:57.909Z,93.30
2017-05-27T12:43:43.056Z,93.10
2017-05-27T12:46:26.146Z,94.40
2017-05-27T12:49:12.149Z,93.60
2017-05-27T12:51:54.181Z,95.30
2017-05-27T12:54:36.311Z,94.90
2017-05-27T12:57:18.939Z,94.80
2017-05-27T12:59:54.298Z,93.90
2017-05-27T13:02:29.989Z,94.20
2017-05-27T13:05:05.089Z,94.10
2017-05-27T13:07:40.402Z,93.90
2017-05-27T13:10:15.705Z,93.80
2017-05-27T13:12:51.087Z,93.20
2017-05-27T13:15:26.313Z,94.30
2017-05-27T13:18:01.937Z,94.70
2017-05-27T13:20:37.160Z,93.80
2017-05-27T13:23:13.550Z,94.60
2017-05-27T13:25:48.761Z,94.70
2017-05-27T13:28:24.049Z,95.10
2017-05-27T13:30:59.200Z,95.00
2017-05-27T13:33:42.564Z,93.90
2017-05-27T13:36:27.515Z,95.60
2017-05-27T13:39:11.689Z,94.20
2017-05-27T13:41:53.709Z,94.80
2017-05-27T13:44:30.284Z,94.00
2017-05-27T13:47:05.597Z,94.70
2017-05-27T13:49:41.038Z,94.60
2017-05-27T13:52:16.218Z,94.00
2017-05-27T13:54:51.753Z,93.60
2017-05-27T13:57:27.065Z,93.50
2017-05-27T14:00:02.338Z,94.70
2017-05-27T14:02:37.707Z,95.00
2017-05-27T14:05:13.067Z,94.60
2017-05-27T14:07:48.249Z,94.50
2017-05-27T14:10:23.479Z,95.20
2017-05-27T14:12:58.873Z,95.10
2017-05-27T14:15:34.185Z,94.80
2017-05-27T14:18:09.512Z,94.60
2017-05-27T14:20:44.720Z,94.40
2017-05-27T14:23:20.033Z,95.00
2017-05-27T14:25:55.604Z,94.50
2017-05-27T14:28:30.878Z,94.30
2017-05-27T14:31:06.226Z,94.00
2017-05-27T14:33:42.090Z,95.00
2017-05-27T14:36:17.804Z,95.50
2017-05-27T14:38:53.151Z,93.90
2017-05-27T14:41:28.471Z,94.10
2017-05-27T14:44:03.895Z,94.40
2017-05-27T14:46:39.301Z,95.60
2017-05-27T14:49:14.530Z,94.60
2017-05-27T14:51:49.930Z,95.30
2017-05-27T14:54:25.157Z,95.30
2017-05-27T14:57:00.641Z,95.40
2017-05-27T14:59:35.993Z,95.10
2017-05-27T15:02:11.411Z,95.80
2017-05-27T15:04:46.761Z,96.20
2017-05-27T15:07:22.181Z,96.60
2017-05-27T15:09:57.511Z,95.70
2017-05-27T15:12:32.759Z,95.40
2017-05-27T15:15:08.153Z,96.50
2017-05-27T15:17:43.731Z,96.90
2017-05-27T15:20:18.955Z,96.50
2017-05-27T15:22:54.574Z,97.20
2017-05-27T15:25:29.900Z,96.70
2017-05-27T15:28:05.324Z,96.40
2017-05-27T15:30:40.619Z,97.90
2017-05-27T15:33:16.017Z,97.00
2017-05-27T15:35:51.338Z,97.20
2017-05-27T15:38:26.827Z,97.70
2017-05-27T15:41:02.086Z,97.60
2017-05-27T15:43:37.542Z,97.90
2017-05-27T15:46:12.968Z,97.10
2017-05-27T15:48:48.185Z,98.00
2017-05-27T15:51:23.492Z,97.40
2017-05-27T15:53:58.850Z,97.70
2017-05-27T15:56:34.169Z,98.80
2017-05-27T15:59:10.145Z,98.20
2017-05-27T16:01:45.547Z,98.20
2017-05-27T16:04:21.994Z,99.20
2017-05-27T16:06:57.465Z,98.70
2017-05-27T16:09:33.633Z,97.40
2017-05-27T16:12:09.078Z,96.60
2017-05-27T16:14:44.424Z,97.00
2017-05-27T16:17:19.822Z,98.10
2017-05-27T16:19:55.120Z,97.90
2017-05-27T16:22:30.496Z,97.70
2017-05-27T16:25:06.265Z,98.50
2017-05-27T16:27:41.719Z,97.80
2017-05-27T16:30:17.549Z,97.90
2017-05-27T16:32:52.871Z,97.00
2017-05-27T16:35:28.189Z,94.80
2017-05-27T16:38:03.588Z,96.20
2017-05-27T16:40:39.013Z,96.10
2017-05-27T16:43:15.286Z,96.40
2017-05-27T16:45:51.800Z,95.90
2017-05-27T16:48:26.929Z,94.90
2017-05-27T16:51:02.187Z,96.00
2017-05-27T16:53:37.455Z,94.50
2017-05-27T16:56:12.753Z,94.00
2017-05-27T16:58:48.243Z,95.10
2017-05-27T17:01:24.253Z,95.10
2017-05-27T17:03:59.540Z,95.00
2017-05-27T17:06:35.035Z,94.90
2017-05-27T17:09:10.435Z,96.20
2017-05-27T17:11:45.760Z,96.50
2017-05-27T17:14:21.000Z,97.70
2017-05-27T17:16:56.470Z,98.30
2017-05-27T17:19:31.646Z,98.40
2017-05-27T17:22:07.102Z,98.10
2017-05-27T17:24:42.347Z,98.20
2017-05-27T17:27:17.922Z,98.90
2017-05-27T17:29:53.195Z,99.00
2017-05-27T17:32:28.900Z,99.30
2017-05-27T17:35:04.246Z,99.10
2017-05-27T17:37:39.644Z,99.60
2017-05-27T17:40:14.947Z,99.60
2017-05-27T17:42:50.352Z,99.80
2017-05-27T17:45:27.308Z,99.90
2017-05-27T17:48:02.681Z,99.90
2017-05-27T17:50:37.938Z,99.30
2017-05-27T17:53:13.359Z,99.70
2017-05-27T17:55:48.674Z,99.90
2017-05-27T17:58:24.091Z,99.90
2017-05-27T18:00:59.487Z,99.90
2017-05-27T18:03:34.935Z,99.90
2017-05-27T18:06:10.306Z,99.90
2017-05-27T18:08:45.656Z,99.90
2017-05-27T18:11:20.980Z,99.90
2017-05-27T18:13:56.268Z,99.90
2017-05-27T18:16:31.591Z,99.90
2017-05-27T18:19:07.018Z,99.90
2017-05-27T18:21:44.041Z,99.90
2017-05-27T18:24:21.381Z,99.90
2017-05-27T18:27:00.905Z,99.90
2017-05-27T18:29:37.040Z,99.90
2017-05-27T18:32:13.023Z,99.90
2017-05-27T18:34:50.022Z,99.90
2017-05-27T18:37:25.731Z,99.90
2017-05-27T18:40:01.895Z,99.90
2017-05-27T18:42:37.354Z,99.90
2017-05-27T18:45:12.615Z,99.90
2017-05-27T18:47:47.970Z,99.90
2017-05-27T18:50:23.664Z,99.90
2017-05-27T18:53:03.594Z,99.90
2017-05-27T18:55:42.212Z,99.90
2017-05-27T18:58:17.683Z,99.90
2017-05-27T19:00:53.386Z,99.90
2017-05-27T19:03:28.558Z,99.90
2017-05-27T19:06:03.811Z,99.90
2017-05-27T19:08:39.030Z,99.90
2017-05-27T19:11:14.554Z,99.90
2017-05-27T19:13:55.559Z,99.90
2017-05-27T19:16:37.115Z,99.90
2017-05-27T19:19:13.260Z,99.90
2017-05-27T19:21:48.597Z,99.90
2017-05-27T19:24:23.921Z,99.90
2017-05-27T19:26:59.168Z,99.90
2017-05-27T19:29:36.233Z,99.90
2017-05-27T19:32:11.507Z,99.90
2017-05-27T19:34:46.705Z,99.90
2017-05-27T19:37:22.074Z,99.90
2017-05-27T19:39:57.397Z,99.90
2017-05-27T19:42:33.103Z,99.90
2017-05-27T19:45:09.632Z,99.90
2017-05-27T19:47:45.381Z,99.90
2017-05-27T19:50:20.706Z,99.90
2017-05-27T19:52:56.099Z,99.90
2017-05-27T19:55:31.403Z,99.90
2017-05-27T19:58:06.786Z,99.90
2017-05-27T20:00:41.930Z,99.90
2017-05-27T20:03:17.225Z,99.90
2017-05-27T20:05:52.602Z,99.90
2017-05-27T20:08:28.009Z,99.90
2017-05-27T20:11:03.425Z,99.90
2017-05-27T20:13:38.831Z,99.90
2017-05-27T20:16:14.206Z,99.90
2017-05-27T20:18:49.695Z,99.90
2017-05-27T20:21:24.930Z,99.90
2017-05-27T20:24:00.253Z,99.90
2017-05-27T20:26:35.622Z,99.90
2017-05-27T20:29:11.003Z,99.90
2017-05-27T20:31:46.355Z,99.90
2017-05-27T20:34:21.604Z,99.90
2017-05-27T20:36:57.628Z,99.90
2017-05-27T20:39:34.948Z,99.90
2017-05-27T20:42:13.596Z,99.90
2017-05-27T20:44:49.300Z,99.90
2017-05-27T20:47:24.523Z,99.90
2017-05-27T20:49:59.849Z,99.90
2017-05-27T20:52:36.019Z,99.90
2017-05-27T20:55:11.348Z,99.90
2017-05-27T20:57:46.768Z,99.90
2017-05-27T21:00:22.153Z,99.90
2017-05-27T21:02:57.549Z,99.90
2017-05-27T21:05:33.177Z,99.90
2017-05-27T21:08:08.389Z,99.90
2017-05-27T21:10:43.769Z,99.90
2017-05-27T21:13:19.134Z,99.90
2017-05-27T21:15:54.437Z,99.90
2017-05-27T21:21:11.698Z,99.90
2017-05-27T21:23:46.975Z,99.90
2017-05-27T21:26:22.361Z,99.90
2017-05-27T21:31:39.295Z,99.90
2017-05-27T21:34:14.692Z,99.90
2017-05-27T21:36:50.011Z,99.90
2017-05-27T21:39:25.146Z,99.90
2017-05-27T21:42:00.342Z,99.90
2017-05-27T21:44:35.553Z,99.90
2017-05-27T21:47:10.766Z,99.90
2017-05-27T21:49:46.817Z,99.90
2017-05-27T21:52:22.261Z,99.90
2017-05-27T21:54:57.339Z,99.90
2017-05-27T21:57:32.700Z,99.90
2017-05-27T22:00:07.964Z,99.90
2017-05-27T22:02:43.228Z,99.90
2017-05-27T22:05:18.627Z,99.90
2017-05-27T22:07:54.039Z,99.90
2017-05-27T22:10:29.375Z,99.90
2017-05-27T22:13:04.833Z,99.90
2017-05-27T22:15:40.145Z,99.90
2017-05-27T22:18:15.537Z,99.90
2017-05-27T22:20:50.790Z,99.90
2017-05-27T22:23:26.196Z,99.90
2017-05-27T22:26:01.363Z,99.90
2017-05-27T22:28:36.807Z,99.90
2017-05-27T22:31:12.186Z,99.90
2017-05-27T22:33:49.059Z,99.90
2017-05-27T22:36:27.197Z,99.90
2017-05-27T22:39:02.682Z,99.90
2017-05-27T22:41:38.026Z,99.90
2017-05-27T22:44:13.419Z,99.90
2017-05-27T22:46:48.779Z,99.90
2017-05-27T22:49:24.162Z,99.90
2017-05-27T22:51:59.333Z,99.90
2017-05-27T22:54:34.900Z,99.90
2017-05-27T22:57:10.165Z,99.90
2017-05-27T22:59:45.516Z,99.90
2017-05-27T23:02:20.893Z,99.90
2017-05-27T23:04:56.394Z,99.90
2017-05-27T23:07:31.813Z,99.90
2017-05-27T23:10:07.165Z,99.90
2017-05-27T23:12:42.414Z,99.90
2017-05-27T23:15:17.631Z,99.90
2017-05-27T23:17:52.815Z,99.90
2017-05-27T23:20:27.995Z,99.90
2017-05-27T23:23:03.284Z,99.90
2017-05-27T23:25:38.883Z,99.90
2017-05-27T23:28:14.197Z,99.90
2017-05-27T23:30:49.485Z,99.90
2017-05-27T23:33:24.606Z,99.90
2017-05-27T23:35:59.974Z,99.90
2017-05-27T23:38:35.347Z,99.90
2017-05-27T23:41:11.025Z,99.90
2017-05-27T23:43:46.160Z,99.90
2017-05-27T23:46:21.518Z,99.90
2017-05-27T23:48:56.933Z,99.90
2017-05-27T23:51:32.221Z,99.90
2017-05-27T23:54:07.632Z,99.90
2017-05-27T23:56:43.219Z,99.90
2017-05-27T23:59:18.850Z,99.90
